createdAt,value
2019-01-05T00:00:04.903Z,1.70
2019-01-05T00:02:53.164Z,1.93
2019-01-05T00:05:48.415Z,1.97
2019-01-05T00:08:40.796Z,1.83
2019-01-05T00:11:31.979Z,1.73
2019-01-05T00:14:22.219Z,2.80
2019-01-05T00:17:17.755Z,1.30
2019-01-05T00:20:18.923Z,1.40
2019-01-05T00:26:36.300Z,1.70
2019-01-05T00:29:34.767Z,1.50
2019-01-05T00:32:59.479Z,1.50
2019-01-05T00:36:06.112Z,1.57
2019-01-05T00:39:13.960Z,1.67
2019-01-05T00:42:04.476Z,1.07
2019-01-05T00:44:54.172Z,0.80
2019-01-05T00:47:44.520Z,0.57
2019-01-05T00:50:33.724Z,0.70
2019-01-05T00:53:21.757Z,0.70
2019-01-05T00:56:10.803Z,0.50
2019-01-05T00:59:06.137Z,0.60
2019-01-05T01:02:00.111Z,0.50
2019-01-05T01:04:48.154Z,0.50
2019-01-05T01:07:37.522Z,0.40
2019-01-05T01:10:25.612Z,0.60
2019-01-05T01:13:30.647Z,0.40
2019-01-05T01:16:39.711Z,0.43
2019-01-05T01:19:33.861Z,0.37
2019-01-05T01:22:23.691Z,0.47
2019-01-05T01:25:19.172Z,0.30
2019-01-05T01:28:08.535Z,0.50
2019-01-05T01:30:57.981Z,0.33
2019-01-05T01:33:46.748Z,0.30
2019-01-05T01:36:51.246Z,0.30
2019-01-05T01:39:41.749Z,0.30
2019-01-05T01:42:39.604Z,0.33
2019-01-05T01:45:29.222Z,0.40
2019-01-05T01:48:20.918Z,0.50
2019-01-05T01:51:11.529Z,0.43
2019-01-05T01:54:13.888Z,0.50
2019-01-05T01:57:01.125Z,0.20
2019-01-05T02:00:16.801Z,0.30
2019-01-05T02:03:28.190Z,0.60
2019-01-05T02:06:13.157Z,0.30
2019-01-05T02:09:15.009Z,0.30
2019-01-05T02:12:17.397Z,0.30
2019-01-05T02:15:29.092Z,0.40
2019-01-05T02:19:01.807Z,0.30
2019-01-05T02:23:05.139Z,0.30
2019-01-05T02:26:46.037Z,0.10
2019-01-05T02:30:33.687Z,0.20
2019-01-05T02:34:11.085Z,0.20
2019-01-05T02:37:50.174Z,0.47
2019-01-05T02:41:45.319Z,0.30
2019-01-05T02:45:56.993Z,1.17
2019-01-05T02:50:12.983Z,0.30
2019-01-05T02:54:29.566Z,0.87
2019-01-05T02:58:00.238Z,0.30
2019-01-05T03:01:44.126Z,0.40
2019-01-05T03:05:10.747Z,0.23
2019-01-05T03:09:11.192Z,0.33
2019-01-05T03:12:51.354Z,0.50
2019-01-05T03:16:24.498Z,0.40
2019-01-05T03:20:04.227Z,0.43
2019-01-05T03:24:07.883Z,0.30
2019-01-05T03:28:01.701Z,0.83
2019-01-05T03:31:47.398Z,0.30
2019-01-05T03:35:13.152Z,0.20
2019-01-05T03:39:00.176Z,0.23
2019-01-05T03:42:41.611Z,0.30
2019-01-05T03:46:22.915Z,0.20
2019-01-05T03:50:23.037Z,0.27
2019-01-05T03:54:21.106Z,0.20
2019-01-05T03:58:02.495Z,0.40
2019-01-05T04:01:38.198Z,1.07
2019-01-05T04:05:49.858Z,0.10
2019-01-05T04:09:45.363Z,0.10
2019-01-05T04:14:07.489Z,0.20
2019-01-05T04:18:05.424Z,0.10
2019-01-05T04:22:12.414Z,0.20
2019-01-05T04:25:57.668Z,0.10
2019-01-05T04:29:43.341Z,0.07
2019-01-05T04:33:28.402Z,0.10
2019-01-05T04:37:00.107Z,0.10
2019-01-05T04:40:39.810Z,0.10
2019-01-05T04:44:11.372Z,0.13
2019-01-05T04:47:42.105Z,0.00
2019-01-05T04:51:38.976Z,0.00
2019-01-05T04:55:23.410Z,0.10
2019-01-05T04:59:11.123Z,0.10
2019-01-05T05:02:58.146Z,0.20
2019-01-05T05:06:33.721Z,0.00
2019-01-05T05:10:32.792Z,0.10
2019-01-05T05:14:32.206Z,0.17
2019-01-05T05:18:15.696Z,0.10
2019-01-05T05:22:15.295Z,0.10
2019-01-05T05:25:59.529Z,0.77
2019-01-05T05:30:19.947Z,0.00
2019-01-05T05:34:26.682Z,0.10
2019-01-05T05:38:13.104Z,0.10
2019-01-05T05:42:06.839Z,0.20
2019-01-05T05:46:21.637Z,0.10
2019-01-05T05:50:14.514Z,0.10
2019-01-05T05:54:10.349Z,0.00
2019-01-05T05:58:07.746Z,0.20
2019-01-05T06:02:27.758Z,0.00
2019-01-05T06:06:02.797Z,0.00
2019-01-05T06:09:35.913Z,0.00
2019-01-05T06:13:35.218Z,0.10
2019-01-05T06:17:30.476Z,0.00
2019-01-05T06:21:28.499Z,0.00
2019-01-05T06:25:16.426Z,0.00
2019-01-05T06:29:15.912Z,0.10
2019-01-05T06:32:58.462Z,0.00
2019-01-05T06:37:02.714Z,0.00
2019-01-05T06:40:57.813Z,0.00
2019-01-05T06:44:40.229Z,0.00
2019-01-05T06:48:27.358Z,0.10
2019-01-05T06:52:12.569Z,0.00
2019-01-05T06:55:46.394Z,0.00
2019-01-05T06:59:31.824Z,0.03
2019-01-05T07:03:41.288Z,0.00
2019-01-05T07:08:13.227Z,0.10
2019-01-05T07:11:45.690Z,0.03
2019-01-05T07:15:42.576Z,0.10
2019-01-05T07:19:51.136Z,0.00
2019-01-05T07:23:41.252Z,0.10
2019-01-05T07:27:25.420Z,0.20
2019-01-05T07:31:11.855Z,0.30
2019-01-05T07:34:44.044Z,0.23
2019-01-05T07:38:25.906Z,0.13
2019-01-05T07:42:27.151Z,0.10
2019-01-05T07:46:28.717Z,0.23
2019-01-05T07:50:34.583Z,0.27
2019-01-05T07:54:34.643Z,0.20
2019-01-05T07:58:24.473Z,0.20
2019-01-05T08:02:09.786Z,0.30
2019-01-05T08:06:03.320Z,0.50
2019-01-05T08:10:02.655Z,0.50
2019-01-05T08:13:53.489Z,0.60
2019-01-05T08:17:52.986Z,0.50
2019-01-05T08:21:58.147Z,0.90
2019-01-05T08:25:19.343Z,1.23
2019-01-05T08:28:52.313Z,1.83
2019-01-05T08:32:39.542Z,2.50
2019-01-05T08:36:44.072Z,2.60
2019-01-05T08:40:39.993Z,2.17
2019-01-05T08:44:22.378Z,2.50
2019-01-05T08:48:09.465Z,3.10
2019-01-05T08:51:41.820Z,2.80
2019-01-05T08:55:36.137Z,2.70
2019-01-05T09:00:06.786Z,2.17
2019-01-05T09:03:59.773Z,2.10
2019-01-05T09:08:27.605Z,1.80
2019-01-05T09:12:32.702Z,1.73
2019-01-05T09:16:21.179Z,1.83
2019-01-05T09:20:31.244Z,1.80
2019-01-05T09:24:28.130Z,1.70
2019-01-05T09:28:18.199Z,2.07
2019-01-05T09:32:10.833Z,1.40
2019-01-05T09:35:53.717Z,1.97
2019-01-05T09:40:09.875Z,1.40
2019-01-05T09:44:01.537Z,1.50
2019-01-05T09:48:03.988Z,1.50
2019-01-05T09:52:06.762Z,1.30
2019-01-05T09:55:49.650Z,2.07
2019-01-05T09:59:49.414Z,1.97
2019-01-05T10:03:39.864Z,1.60
2019-01-05T10:07:20.410Z,1.63
2019-01-05T10:11:17.940Z,1.53
2019-01-05T10:15:21.292Z,2.63
2019-01-05T10:19:19.466Z,1.40
2019-01-05T10:23:09.278Z,1.60
2019-01-05T10:27:24.836Z,1.40
2019-01-05T10:31:34.808Z,1.10
2019-01-05T10:35:18.624Z,2.00
2019-01-05T10:39:15.940Z,1.82
2019-01-05T10:43:05.207Z,1.20
2019-01-05T10:47:03.280Z,1.50
2019-01-05T10:51:02.429Z,1.47
2019-01-05T10:55:15.213Z,1.33
2019-01-05T10:59:37.972Z,1.17
2019-01-05T11:04:13.115Z,0.90
2019-01-05T11:08:15.975Z,0.87
2019-01-05T11:12:14.723Z,0.80
2019-01-05T11:15:48.837Z,1.20
2019-01-05T11:19:38.129Z,1.23
2019-01-05T11:23:51.921Z,0.80
2019-01-05T11:27:40.379Z,0.93
2019-01-05T11:31:26.488Z,1.72
2019-01-05T11:35:16.356Z,1.70
2019-01-05T11:39:16.993Z,1.05
2019-01-05T11:43:04.031Z,0.70
2019-01-05T11:46:38.697Z,0.90
2019-01-05T11:50:20.750Z,1.23
2019-01-05T11:54:11.058Z,1.17
2019-01-05T11:57:54.017Z,0.70
2019-01-05T12:01:59.380Z,0.70
2019-01-05T12:06:04.497Z,0.85
2019-01-05T12:10:05.648Z,0.60
2019-01-05T12:14:02.828Z,1.23
2019-01-05T12:17:53.759Z,0.72
2019-01-05T12:21:36.113Z,1.23
2019-01-05T12:25:47.861Z,0.78
2019-01-05T12:29:48.753Z,1.02
2019-01-05T12:33:25.260Z,0.60
2019-01-05T12:37:24.970Z,0.60
2019-01-05T12:41:25.749Z,0.95
2019-01-05T12:45:38.227Z,1.05
2019-01-05T12:49:22.352Z,1.60
2019-01-05T12:53:58.443Z,0.95
2019-01-05T12:58:12.024Z,0.68
2019-01-05T13:01:55.362Z,1.70
2019-01-05T13:05:35.625Z,1.10
2019-01-05T13:09:42.778Z,1.98
2019-01-05T13:13:32.998Z,1.20
2019-01-05T13:17:33.583Z,1.00
2019-01-05T13:21:26.942Z,2.00
2019-01-05T13:25:51.307Z,1.57
2019-01-05T13:29:34.178Z,1.45
2019-01-05T13:33:48.903Z,1.20
2019-01-05T13:37:26.262Z,1.40
2019-01-05T13:41:35.121Z,2.27
2019-01-05T13:46:00.411Z,2.43
2019-01-05T13:49:47.757Z,2.90
2019-01-05T13:53:30.698Z,1.45
2019-01-05T13:56:30.213Z,2.42
2019-01-05T13:59:22.696Z,1.93
2019-01-05T14:02:10.736Z,2.83
2019-01-05T14:05:06.149Z,3.03
2019-01-05T14:07:58.267Z,2.52
2019-01-05T14:10:51.768Z,2.93
2019-01-05T14:13:50.626Z,3.35
2019-01-05T14:16:45.677Z,1.52
2019-01-05T14:19:33.976Z,1.37
2019-01-05T14:22:22.004Z,2.40
2019-01-05T14:25:16.605Z,1.80
2019-01-05T14:28:04.760Z,1.65
2019-01-05T14:31:06.534Z,2.35
2019-01-05T14:34:11.346Z,3.00
2019-01-05T14:37:03.521Z,1.60
2019-01-05T14:39:51.574Z,2.58
2019-01-05T14:42:40.201Z,2.52
2019-01-05T14:45:28.198Z,1.92
2019-01-05T14:48:32.839Z,3.77
2019-01-05T14:51:21.414Z,2.42
2019-01-05T14:54:09.775Z,3.72
2019-01-05T14:57:08.418Z,2.30
2019-01-05T15:00:06.885Z,3.75
2019-01-05T15:02:56.279Z,2.95
2019-01-05T15:05:55.017Z,2.33
2019-01-05T15:08:43.344Z,3.15
2019-01-05T15:11:51.422Z,2.33
2019-01-05T15:14:53.145Z,3.70
2019-01-05T15:17:42.517Z,3.10
2019-01-05T15:20:37.762Z,3.87
2019-01-05T15:23:26.415Z,2.93
2019-01-05T15:26:18.873Z,2.37
2019-01-05T15:29:05.736Z,2.93
2019-01-05T15:31:54.228Z,3.37
2019-01-05T15:34:55.759Z,2.42
2019-01-05T15:37:44.151Z,2.37
2019-01-05T15:40:51.662Z,4.20
2019-01-05T15:43:54.708Z,4.22
2019-01-05T15:46:42.882Z,3.27
2019-01-05T15:49:31.220Z,3.50
2019-01-05T15:52:19.290Z,4.87
2019-01-05T15:55:22.767Z,4.55
2019-01-05T15:58:24.495Z,5.53
2019-01-05T16:01:26.192Z,4.33
2019-01-05T16:04:27.876Z,4.42
2019-01-05T16:07:15.924Z,4.70
2019-01-05T16:10:04.207Z,5.70
2019-01-05T16:12:52.504Z,3.02
2019-01-05T16:18:28.722Z,4.87
2019-01-05T16:21:17.039Z,4.15
2019-01-05T16:24:09.624Z,4.80
2019-01-05T16:27:11.263Z,5.23
2019-01-05T16:30:03.672Z,3.92
2019-01-05T16:32:53.316Z,6.03
2019-01-05T16:35:41.289Z,5.87
2019-01-05T16:38:36.487Z,3.30
2019-01-05T16:41:25.589Z,3.37
2019-01-05T16:44:13.911Z,4.03
2019-01-05T16:47:12.580Z,5.17
2019-01-05T16:50:04.916Z,4.17
2019-01-05T16:52:53.118Z,5.00
2019-01-05T16:55:41.020Z,4.55
2019-01-05T16:58:39.632Z,4.85
2019-01-05T17:01:37.072Z,3.83
2019-01-05T17:04:25.209Z,3.87
2019-01-05T17:07:26.825Z,7.12
2019-01-05T17:10:14.622Z,3.47
2019-01-05T17:13:07.970Z,5.43
2019-01-05T17:15:56.926Z,4.12
2019-01-05T17:18:49.372Z,6.25
2019-01-05T17:21:44.911Z,5.47
2019-01-05T17:24:33.122Z,6.87
2019-01-05T17:27:23.942Z,7.97
2019-01-05T17:30:12.466Z,4.93
2019-01-05T17:33:01.808Z,5.60
2019-01-05T17:35:51.227Z,3.55
2019-01-05T17:38:46.684Z,4.28
2019-01-05T17:41:35.681Z,3.53
2019-01-05T17:44:37.448Z,4.72
2019-01-05T17:47:25.724Z,5.35
2019-01-05T17:50:15.167Z,3.90
2019-01-05T17:53:04.541Z,5.00
2019-01-05T17:55:53.807Z,3.90
2019-01-05T17:58:55.560Z,5.40
2019-01-05T18:01:50.651Z,4.70
2019-01-05T18:04:40.047Z,4.03
2019-01-05T18:07:28.373Z,5.60
2019-01-05T18:10:18.492Z,5.55
2019-01-05T18:13:23.043Z,6.22
2019-01-05T18:16:11.376Z,7.12
2019-01-05T18:18:59.705Z,6.85
2019-01-05T18:21:50.676Z,5.15
2019-01-05T18:24:43.224Z,3.83
2019-01-05T18:27:31.471Z,5.80
2019-01-05T18:30:20.504Z,6.72
2019-01-05T18:33:08.190Z,6.05
2019-01-05T18:35:56.568Z,5.55
2019-01-05T18:38:51.465Z,6.92
2019-01-05T18:41:50.733Z,6.20
2019-01-05T18:44:43.072Z,6.22
2019-01-05T18:47:41.814Z,7.58
2019-01-05T18:50:37.015Z,8.27
2019-01-05T18:53:26.054Z,7.65
2019-01-05T18:56:14.124Z,7.53
2019-01-05T18:59:03.523Z,8.65
2019-01-05T19:01:56.226Z,8.18
2019-01-05T19:05:00.269Z,7.47
2019-01-05T19:07:59.809Z,6.10
2019-01-05T19:10:47.900Z,8.43
2019-01-05T19:13:40.236Z,8.10
2019-01-05T19:16:28.336Z,6.87
2019-01-05T19:19:32.942Z,8.83
2019-01-05T19:22:31.370Z,8.95
2019-01-05T19:25:19.676Z,8.30
2019-01-05T19:28:09.100Z,9.13
2019-01-05T19:30:56.495Z,8.00
2019-01-05T19:33:58.196Z,8.83
2019-01-05T19:36:46.329Z,7.87
2019-01-05T19:39:35.787Z,8.50
2019-01-05T19:42:24.092Z,6.57
2019-01-05T19:45:12.462Z,6.13
2019-01-05T19:48:01.504Z,5.50
2019-01-05T19:50:50.310Z,6.87
2019-01-05T19:53:42.528Z,6.33
2019-01-05T19:56:50.995Z,6.25
2019-01-05T19:59:43.736Z,6.22
2019-01-05T20:02:27.714Z,6.80
2019-01-05T20:05:15.959Z,6.47
2019-01-05T20:08:17.505Z,7.10
2019-01-05T20:11:07.128Z,9.57
2019-01-05T20:13:48.229Z,6.37
2019-01-05T20:16:37.651Z,5.63
2019-01-05T20:19:26.031Z,4.80
2019-01-05T20:22:15.464Z,5.47
2019-01-05T20:24:59.642Z,5.35
2019-01-05T20:28:01.260Z,5.20
2019-01-05T20:30:53.670Z,7.50
2019-01-05T20:33:41.984Z,5.58
2019-01-05T20:36:30.341Z,6.55
2019-01-05T20:39:18.058Z,4.65
2019-01-05T20:42:06.597Z,6.12
2019-01-05T20:45:02.283Z,7.03
2019-01-05T20:47:51.927Z,7.05
2019-01-05T20:50:47.415Z,5.55
2019-01-05T20:53:51.921Z,6.90
2019-01-05T20:56:41.433Z,5.20
2019-01-05T20:59:36.137Z,5.33
2019-01-05T21:02:40.066Z,5.17
2019-01-05T21:05:29.564Z,6.85
2019-01-05T21:08:17.828Z,7.05
2019-01-05T21:11:11.990Z,7.70
2019-01-05T21:14:00.058Z,3.47
2019-01-05T21:16:48.163Z,7.10
2019-01-05T21:19:40.680Z,5.60
2019-01-05T21:22:41.982Z,5.97
2019-01-05T21:25:30.026Z,5.90
2019-01-05T21:28:16.632Z,5.42
2019-01-05T21:31:04.938Z,7.03
2019-01-05T21:34:03.663Z,6.05
2019-01-05T21:37:11.466Z,4.42
2019-01-05T21:40:09.962Z,1.37
2019-01-05T21:42:59.402Z,2.00
2019-01-05T21:45:57.802Z,0.70
2019-01-05T21:48:46.286Z,0.50
2019-01-05T21:51:38.478Z,1.30
2019-01-05T21:54:27.971Z,1.00
2019-01-05T21:57:20.455Z,1.35
2019-01-05T22:00:08.472Z,1.50
2019-01-05T22:03:10.201Z,2.05
2019-01-05T22:06:12.420Z,0.60
2019-01-05T22:09:01.039Z,1.27
2019-01-05T22:11:48.863Z,2.17
2019-01-05T22:14:50.387Z,2.37
2019-01-05T22:17:42.876Z,2.20
2019-01-05T22:20:26.614Z,1.20
2019-01-05T22:23:21.895Z,2.10
2019-01-05T22:26:09.219Z,1.42
2019-01-05T22:28:57.234Z,1.47
2019-01-05T22:31:43.179Z,1.63
2019-01-05T22:34:31.084Z,2.43
2019-01-05T22:37:18.824Z,2.10
2019-01-05T22:40:14.063Z,1.37
2019-01-05T22:43:12.473Z,2.00
2019-01-05T22:46:17.100Z,1.33
2019-01-05T22:49:15.465Z,1.93
2019-01-05T22:52:16.864Z,0.75
2019-01-05T22:55:06.259Z,0.80
2019-01-05T22:58:13.828Z,1.00
2019-01-05T23:01:02.210Z,1.20
2019-01-05T23:03:50.082Z,0.77
2019-01-05T23:06:51.702Z,0.63
2019-01-05T23:09:45.247Z,0.63
2019-01-05T23:12:33.243Z,0.93
2019-01-05T23:15:28.710Z,0.57
2019-01-05T23:18:16.628Z,0.87
2019-01-05T23:21:13.472Z,0.73
2019-01-05T23:23:59.122Z,0.50
2019-01-05T23:26:41.640Z,0.83
2019-01-05T23:29:37.328Z,0.83
2019-01-05T23:32:25.713Z,1.83
2019-01-05T23:35:27.499Z,0.67
2019-01-05T23:38:26.016Z,1.10
2019-01-05T23:41:30.757Z,0.90
2019-01-05T23:44:17.602Z,1.00
2019-01-05T23:47:04.986Z,1.63
2019-01-05T23:50:06.968Z,1.23
2019-01-05T23:52:55.092Z,0.97
2019-01-05T23:55:46.452Z,0.83
2019-01-05T23:58:45.127Z,1.40
